Time;durP1;ratioP1;P1;durP2;ratioP2;P2;SDS_P1;SDS_P2;PMS_P1;PMS_P2;Temp;Humidity;BMP_temperature;BMP_pressure;BME280_temperature;BME280_humidity;BME280_pressure;Samples;Min_cycle;Max_cycle;Signal;HPM_P1;HPM_P2
2023/06/30 00:02:22;;;;;;;6.03;3.70;;;;;;;12.65;94.17;97473.31;6244624;28;20700;-51
2023/06/30 00:05:25;;;;;;;4.00;3.63;;;;;;;12.64;94.19;97471.72;6245685;28;20705;-47
2023/06/30 00:08:27;;;;;;;4.20;3.80;;;;;;;12.61;94.42;97474.94;6245379;28;20322;-50
2023/06/30 00:11:29;;;;;;;6.57;3.90;;;;;;;12.57;94.36;97470.38;6234434;28;20234;-50
2023/06/30 00:14:31;;;;;;;3.53;3.23;;;;;;;12.49;94.57;97462.84;6242261;28;20356;-51
2023/06/30 00:17:33;;;;;;;4.20;3.57;;;;;;;12.58;94.22;97466.63;6240846;28;20705;-47
2023/06/30 00:20:36;;;;;;;5.27;3.50;;;;;;;12.37;94.37;97428.31;6241019;28;20611;-50
2023/06/30 00:23:38;;;;;;;3.03;2.73;;;;;;;12.63;93.93;97467.44;6233643;28;20726;-51
2023/06/30 00:26:40;;;;;;;3.63;3.33;;;;;;;12.35;93.83;97423.22;6244152;28;20227;-48
2023/06/30 00:29:43;;;;;;;3.67;3.30;;;;;;;12.60;93.73;97465.28;6244119;28;20241;-47
2023/06/30 00:32:45;;;;;;;4.57;3.83;;;;;;;12.57;93.93;97463.16;6250271;28;20250;-47
2023/06/30 00:35:48;;;;;;;4.53;3.30;;;;;;;12.57;93.91;97457.81;6246154;28;20408;-47
2023/06/30 00:38:54;;;;;;;3.93;3.60;;;;;;;12.53;93.84;97462.06;6247544;28;20223;-50
2023/06/30 00:41:57;;;;;;;5.43;4.50;;;;;;;12.50;94.28;97459.09;6245490;28;20224;-48
2023/06/30 00:45:00;;;;;;;5.60;3.57;;;;;;;12.47;93.95;97460.44;6246768;28;20242;-50
2023/06/30 00:48:03;;;;;;;5.60;3.80;;;;;;;12.19;94.66;97423.41;6247585;28;20219;-50
2023/06/30 00:51:05;;;;;;;5.73;3.70;;;;;;;12.34;95.27;97460.88;6247132;28;20617;-47
2023/06/30 00:54:08;;;;;;;8.13;4.43;;;;;;;12.31;95.25;97458.72;6242711;28;20234;-48
2023/06/30 00:57:10;;;;;;;4.13;3.83;;;;;;;12.29;95.40;97461.66;6247151;28;20570;-51
2023/06/30 01:00:13;;;;;;;5.60;3.63;;;;;;;12.33;95.18;97460.06;6244251;28;20224;-49
2023/06/30 01:03:27;;;;;;;3.97;3.63;;;;;;;12.35;94.81;97451.78;6247113;28;20222;-50
2023/06/30 01:06:39;;;;;;;4.83;3.93;;;;;;;12.28;95.61;97440.56;6246348;28;20692;-49
2023/06/30 01:09:53;;;;;;;8.70;4.30;;;;;;;12.23;95.67;97443.19;6233052;28;20239;-50
2023/06/30 01:12:58;;;;;;;4.20;3.90;;;;;;;12.03;95.82;97420.63;6239533;28;20228;-50
2023/06/30 01:16:04;;;;;;;5.43;3.87;;;;;;;11.90;96.00;97399.72;6239494;28;20381;-48
2023/06/30 01:19:18;;;;;;;5.60;4.30;;;;;;;12.08;96.78;97430.53;6244852;28;20235;-50
2023/06/30 01:22:39;;;;;;;4.53;4.13;;;;;;;11.78;96.89;97399.88;6245965;28;20267;-47
2023/06/30 01:25:43;;;;;;;4.37;3.97;;;;;;;11.80;97.40;97408.44;6245935;28;20327;-48
2023/06/30 01:28:46;;;;;;;4.20;3.80;;;;;;;11.77;97.47;97392.94;6243796;28;20263;-48
2023/06/30 01:31:48;;;;;;;5.33;4.40;;;;;;;12.05;97.10;97429.19;6231707;28;20240;-47
2023/06/30 01:34:51;;;;;;;5.60;4.37;;;;;;;11.95;96.61;97410.44;6244632;28;20260;-48
2023/06/30 01:37:54;;;;;;;4.60;4.20;;;;;;;12.09;96.94;97427.59;6244113;28;20322;-47
2023/06/30 01:40:58;;;;;;;3.80;3.50;;;;;;;11.96;96.69;97405.88;6251112;28;20231;-47
2023/06/30 01:44:02;;;;;;;4.30;4.00;;;;;;;11.88;96.80;97397.31;6243168;28;20747;-48
2023/06/30 01:47:06;;;;;;;4.03;3.73;;;;;;;12.10;96.60;97431.09;6244610;28;20220;-50
2023/06/30 01:50:08;;;;;;;3.63;3.33;;;;;;;11.90;96.52;97399.72;6241274;28;20235;-50
2023/06/30 01:53:10;;;;;;;4.30;3.90;;;;;;;12.07;96.60;97427.06;6240217;28;20267;-47
2023/06/30 01:56:13;;;;;;;3.73;3.43;;;;;;;12.06;96.71;97422.78;6244782;28;20250;-50
2023/06/30 01:59:16;;;;;;;4.50;3.70;;;;;;;12.04;96.38;97430.25;6239133;28;20720;-48
2023/06/30 02:02:18;;;;;;;3.67;3.37;;;;;;;12.00;96.34;97439.03;6245068;28;20597;-48
2023/06/30 02:05:20;;;;;;;4.80;4.30;;;;;;;11.95;96.73;97439.00;6241742;28;20598;-48
2023/06/30 02:08:23;;;;;;;4.30;3.87;;;;;;;11.93;96.75;97431.25;6237682;28;20231;-47
2023/06/30 02:11:25;;;;;;;6.13;4.50;;;;;;;11.72;97.17;97416.09;6243351;28;20600;-48
2023/06/30 02:14:27;;;;;;;5.27;4.50;;;;;;;11.79;97.61;97438.03;6245074;28;20278;-50
2023/06/30 02:17:31;;;;;;;4.13;3.73;;;;;;;11.73;97.64;97431.06;6245462;28;20270;-52
2023/06/30 02:20:33;;;;;;;5.97;4.20;;;;;;;11.72;98.29;97432.09;6224082;28;20232;-48
2023/06/30 02:23:36;;;;;;;6.23;4.00;;;;;;;11.74;97.86;97424.66;6218210;28;20290;-48
2023/06/30 02:26:39;;;;;;;4.70;4.30;;;;;;;11.72;98.26;97427.56;6219716;28;20228;-50
2023/06/30 02:29:41;;;;;;;6.27;3.97;;;;;;;11.73;98.04;97428.41;6213671;28;20266;-50
2023/06/30 02:32:44;;;;;;;4.93;4.53;;;;;;;11.72;97.98;97427.56;6219794;28;20228;-47
2023/06/30 02:35:47;;;;;;;4.50;4.10;;;;;;;11.71;97.89;97417.16;6218991;28;20231;-49
2023/06/30 02:38:49;;;;;;;5.57;4.30;;;;;;;11.72;98.04;97416.09;6217566;28;20361;-47
2023/06/30 02:41:51;;;;;;;7.17;6.47;;;;;;;11.55;98.30;97393.03;6216695;28;20228;-50
2023/06/30 02:44:54;;;;;;;6.77;4.70;;;;;;;11.47;98.46;97380.16;6232452;28;20833;-48
2023/06/30 02:47:56;;;;;;;5.00;4.50;;;;;;;11.64;98.55;97409.38;6235947;28;20653;-50
2023/06/30 02:50:59;;;;;;;5.60;4.40;;;;;;;11.42;98.35;97369.44;6221384;28;20756;-47
2023/06/30 02:54:01;;;;;;;4.33;3.73;;;;;;;11.62;99.15;97398.13;6217490;28;20376;-49
2023/06/30 02:57:03;;;;;;;4.57;4.17;;;;;;;11.61;98.70;97397.34;6216992;28;20251;-47
2023/06/30 03:00:06;;;;;;;4.20;3.80;;;;;;;11.49;99.12;97382.59;6217138;28;20670;-50
2023/06/30 03:03:09;;;;;;;5.23;4.50;;;;;;;11.56;98.99;97394.63;6215126;28;20201;-50
2023/06/30 03:06:12;;;;;;;5.37;4.37;;;;;;;11.52;99.72;97390.06;6217251;28;20223;-49
2023/06/30 03:09:14;;;;;;;5.00;4.50;;;;;;;11.50;99.96;97390.31;6201073;28;20685;-47
2023/06/30 03:12:17;;;;;;;5.77;4.63;;;;;;;11.60;100.00;97401.06;6217684;28;20770;-48
2023/06/30 03:15:19;;;;;;;5.87;4.53;;;;;;;11.61;100.00;97402.69;6215314;28;20235;-51
2023/06/30 03:18:21;;;;;;;5.23;4.73;;;;;;;11.61;100.00;97399.22;6214845;28;20220;-51
2023/06/30 03:21:25;;;;;;;5.17;4.60;;;;;;;11.61;100.00;97400.00;6218882;28;20573;-50
2023/06/30 03:24:27;;;;;;;4.23;3.80;;;;;;;11.63;99.85;97400.56;6224375;28;20228;-49
2023/06/30 03:27:29;;;;;;;5.80;4.30;;;;;;;11.68;100.00;97399.00;6213837;28;20228;-49
2023/06/30 03:30:31;;;;;;;4.87;4.27;;;;;;;11.67;99.61;97403.50;6218017;28;20596;-49
2023/06/30 03:33:34;;;;;;;4.27;3.97;;;;;;;11.53;99.62;97381.03;6217825;28;20243;-46
2023/06/30 03:36:36;;;;;;;4.50;4.10;;;;;;;11.66;99.78;97403.78;6221978;28;20239;-47
2023/06/30 03:39:39;;;;;;;7.93;4.60;;;;;;;11.06;100.00;97294.50;6217697;28;20373;-49
2023/06/30 03:42:41;;;;;;;5.97;4.73;;;;;;;11.70;100.00;97392.34;6218626;28;20633;-47
2023/06/30 03:45:43;;;;;;;4.93;4.43;;;;;;;11.56;100.00;97370.63;6215694;28;20311;-48
2023/06/30 03:48:46;;;;;;;7.10;4.70;;;;;;;11.71;100.00;97393.13;6218778;28;20239;-49
2023/06/30 03:51:49;;;;;;;6.23;4.83;;;;;;;11.72;100.00;97390.22;6218236;28;20258;-49
2023/06/30 03:54:51;;;;;;;6.03;5.37;;;;;;;11.75;100.00;97386.25;6214177;28;20331;-49
2023/06/30 03:57:53;;;;;;;6.57;5.03;;;;;;;11.78;100.00;97388.41;6218184;28;20242;-48
2023/06/30 04:00:55;;;;;;;5.50;5.00;;;;;;;11.82;100.00;97385.00;6216587;28;20247;-50
2023/06/30 04:03:58;;;;;;;7.93;5.30;;;;;;;11.85;100.00;97381.00;6219510;28;20237;-50
2023/06/30 04:07:00;;;;;;;6.17;5.37;;;;;;;11.90;100.00;97389.03;6218914;28;20244;-47
2023/06/30 04:10:02;;;;;;;6.43;5.10;;;;;;;11.80;100.00;97362.25;6214507;28;20234;-50
2023/06/30 04:13:06;;;;;;;6.43;5.70;;;;;;;11.99;100.00;97376.03;6223144;28;20284;-49
2023/06/30 04:16:09;;;;;;;5.93;5.10;;;;;;;12.03;100.00;97385.94;6223290;28;20701;-51
2023/06/30 04:19:11;;;;;;;6.33;4.97;;;;;;;11.93;100.00;97358.38;6221475;28;20321;-52
2023/06/30 04:22:14;;;;;;;5.23;4.73;;;;;;;12.13;100.00;97377.97;6222911;28;20232;-53
2023/06/30 04:25:16;;;;;;;5.83;5.17;;;;;;;12.17;100.00;97370.25;6221282;28;20235;-50
2023/06/30 04:28:18;;;;;;;5.53;4.97;;;;;;;12.11;100.00;97352.56;6222035;28;20795;-54
2023/06/30 04:31:20;;;;;;;4.77;4.37;;;;;;;12.20;100.00;97364.38;6219830;28;20236;-53
2023/06/30 04:34:22;;;;;;;5.00;4.33;;;;;;;12.37;100.00;97380.22;6220591;28;20248;-49
2023/06/30 04:37:31;;;;;;;7.27;4.97;;;;;;;12.31;100.00;97360.69;6220717;28;20236;-51
2023/06/30 04:40:33;;;;;;;5.23;4.73;;;;;;;12.46;100.00;97373.31;6219983;28;20228;-51
2023/06/30 04:43:35;;;;;;;5.03;4.43;;;;;;;12.46;100.00;97367.16;6221413;28;20237;-51
2023/06/30 04:46:37;;;;;;;6.13;4.20;;;;;;;12.56;100.00;97376.03;6220408;28;20235;-50
2023/06/30 04:49:39;;;;;;;4.60;4.20;;;;;;;12.62;100.00;97377.66;6226285;28;20228;-55
2023/06/30 04:52:41;;;;;;;4.67;4.20;;;;;;;12.69;100.00;97374.72;6222391;28;21133;-50
2023/06/30 04:55:44;;;;;;;5.03;4.63;;;;;;;12.73;100.00;97373.16;6220879;28;20240;-50
2023/06/30 04:58:50;;;;;;;4.53;4.13;;;;;;;12.78;100.00;97364.34;6220721;28;20236;-48
2023/06/30 05:01:52;;;;;;;4.67;4.37;;;;;;;12.67;100.00;97344.00;6224221;28;20238;-50
2023/06/30 05:04:54;;;;;;;6.83;4.93;;;;;;;12.88;100.00;97367.84;6221474;28;20231;-50
2023/06/30 05:07:56;;;;;;;5.17;4.67;;;;;;;12.96;100.00;97368.41;6220561;28;20232;-49
2023/06/30 05:10:58;;;;;;;6.60;4.50;;;;;;;12.92;100.00;97346.72;6219483;28;20659;-51
2023/06/30 05:14:00;;;;;;;3.97;3.67;;;;;;;13.12;100.00;97370.81;6216879;28;20640;-52
2023/06/30 05:17:03;;;;;;;3.60;3.37;;;;;;;13.15;100.00;97348.09;6218510;28;20629;-50
2023/06/30 05:20:08;;;;;;;3.90;3.60;;;;;;;13.30;100.00;97363.38;6213693;28;20228;-51
2023/06/30 05:23:10;;;;;;;4.13;3.83;;;;;;;13.36;100.00;97356.97;6221326;28;20317;-50
2023/06/30 05:26:12;;;;;;;4.83;3.97;;;;;;;13.43;100.00;97350.25;6222395;28;20713;-52
2023/06/30 05:29:14;;;;;;;4.43;4.10;;;;;;;13.51;100.00;97351.63;6222009;28;20286;-51
2023/06/30 05:32:16;;;;;;;5.07;4.53;;;;;;;13.62;100.00;97358.56;6218830;28;20228;-50
2023/06/30 05:35:18;;;;;;;4.30;4.00;;;;;;;13.72;100.00;97356.94;6218290;28;20230;-50
2023/06/30 05:38:20;;;;;;;4.50;3.80;;;;;;;13.77;100.00;97344.34;6219097;28;20227;-51
2023/06/30 05:41:23;;;;;;;4.17;3.87;;;;;;;13.78;100.00;97315.72;6220417;28;20234;-51
2023/06/30 05:44:25;;;;;;;3.80;3.50;;;;;;;14.04;100.00;97327.97;6220473;28;20356;-52
2023/06/30 05:47:27;;;;;;;4.07;3.77;;;;;;;14.40;100.00;97351.97;6223977;28;20228;-51
2023/06/30 05:50:29;;;;;;;3.57;3.33;;;;;;;14.60;100.00;97359.94;6226426;28;20235;-51
2023/06/30 05:53:31;;;;;;;4.27;3.90;;;;;;;14.83;99.97;97360.38;6226909;28;20235;-52
2023/06/30 05:56:33;;;;;;;4.00;3.67;;;;;;;15.02;99.19;97361.31;6219058;28;20248;-52
2023/06/30 05:59:35;;;;;;;3.97;3.50;;;;;;;15.18;98.28;97356.66;6220065;28;20228;-52
2023/06/30 06:02:38;;;;;;;3.83;3.43;;;;;;;15.33;97.79;97363.81;6216004;28;20790;-52
2023/06/30 06:05:40;;;;;;;3.70;3.40;;;;;;;15.46;97.24;97355.09;6220051;28;20227;-51
2023/06/30 06:08:43;;;;;;;3.30;3.00;;;;;;;15.62;97.39;97353.91;6218015;28;20602;-52
2023/06/30 06:11:45;;;;;;;3.90;3.60;;;;;;;15.81;97.21;97361.25;6218750;28;20231;-54
2023/06/30 06:14:47;;;;;;;3.90;3.60;;;;;;;15.97;96.92;97352.78;6217572;28;20309;-53
2023/06/30 06:17:49;;;;;;;3.07;2.87;;;;;;;16.13;96.51;97342.66;6221180;28;20228;-52
2023/06/30 06:20:52;;;;;;;3.33;3.03;;;;;;;16.34;96.07;97354.00;6219406;28;20246;-53
2023/06/30 06:23:55;;;;;;;3.33;3.03;;;;;;;16.57;95.19;97355.06;6217459;28;20240;-52
2023/06/30 06:26:57;;;;;;;3.57;3.23;;;;;;;16.82;94.46;97348.59;6217845;28;20228;-53
2023/06/30 06:29:59;;;;;;;3.93;3.13;;;;;;;17.00;93.31;97363.94;6217868;28;20318;-54
2023/06/30 06:33:01;;;;;;;3.40;3.10;;;;;;;17.19;91.46;97369.31;6220761;28;20642;-54
2023/06/30 06:36:03;;;;;;;4.00;3.33;;;;;;;17.39;90.39;97367.38;6219458;28;20231;-53
2023/06/30 06:39:05;;;;;;;3.53;3.23;;;;;;;17.58;88.21;97361.97;6218329;28;20700;-52
2023/06/30 06:42:08;;;;;;;3.50;3.20;;;;;;;17.75;88.46;97365.75;6217055;28;20216;-54
2023/06/30 06:45:10;;;;;;;3.73;2.90;;;;;;;17.84;86.72;97370.47;6220069;28;20215;-52
2023/06/30 06:48:19;;;;;;;3.67;2.90;;;;;;;17.97;86.43;97375.06;6219837;28;20215;-53
2023/06/30 06:51:22;;;;;;;3.33;3.03;;;;;;;18.11;85.75;97357.03;6220046;28;20239;-54
2023/06/30 06:54:24;;;;;;;3.10;2.80;;;;;;;18.26;84.20;97366.72;6219538;28;20609;-54
2023/06/30 06:57:26;;;;;;;3.10;2.90;;;;;;;18.43;84.69;97368.84;6217533;28;20236;-54
2023/06/30 07:00:28;;;;;;;3.30;2.90;;;;;;;18.58;83.71;97359.66;6218624;28;20593;-53
2023/06/30 07:03:30;;;;;;;3.43;2.87;;;;;;;18.70;83.44;97360.75;6217298;28;20610;-54
2023/06/30 07:06:32;;;;;;;2.97;2.63;;;;;;;18.84;82.27;97354.53;6216273;28;20321;-54
2023/06/30 07:09:34;;;;;;;2.57;2.37;;;;;;;18.94;81.81;97351.59;6220590;28;20724;-55
2023/06/30 07:12:36;;;;;;;3.33;2.43;;;;;;;19.04;81.90;97349.47;6217721;28;20231;-55
2023/06/30 07:15:39;;;;;;;4.37;2.40;;;;;;;19.03;80.92;97341.69;6214251;28;20236;-54
2023/06/30 07:18:41;;;;;;;6.83;2.73;;;;;;;19.16;79.94;97359.75;6219084;28;20608;-55
2023/06/30 07:21:43;;;;;;;3.77;2.60;;;;;;;19.21;79.90;97356.13;6208503;28;20232;-55
2023/06/30 07:24:45;;;;;;;3.20;2.60;;;;;;;19.05;79.43;97323.28;6221444;28;20659;-55
2023/06/30 07:27:52;;;;;;;2.53;2.33;;;;;;;19.42;78.98;97356.47;6218876;28;20238;-55
2023/06/30 07:30:54;;;;;;;3.73;2.50;;;;;;;19.54;78.27;97348.59;6217770;28;20236;-55
2023/06/30 07:33:56;;;;;;;3.67;2.70;;;;;;;19.63;77.09;97348.69;6217323;28;20331;-54
2023/06/30 07:36:59;;;;;;;3.20;2.70;;;;;;;19.74;77.57;97355.41;6215814;28;20238;-55
2023/06/30 07:40:01;;;;;;;3.30;2.93;;;;;;;19.83;75.78;97356.25;6225025;28;20227;-55
2023/06/30 07:43:17;;;;;;;4.33;2.67;;;;;;;20.00;75.55;97350.13;6224987;28;20235;-55
2023/06/30 07:46:19;;;;;;;3.90;2.83;;;;;;;20.13;75.70;97357.38;6224093;28;20262;-55
2023/06/30 07:49:21;;;;;;;3.57;2.77;;;;;;;20.22;75.32;97354.72;6223747;28;20282;-55
2023/06/30 07:52:24;;;;;;;3.23;2.67;;;;;;;20.30;73.29;97348.53;6219233;28;20694;-55
2023/06/30 07:55:26;;;;;;;2.80;2.50;;;;;;;20.19;72.82;97318.25;6222980;28;20370;-55
2023/06/30 07:58:28;;;;;;;6.73;2.60;;;;;;;20.51;70.37;97346.09;6223456;28;20238;-55
2023/06/30 08:01:30;;;;;;;5.10;3.07;;;;;;;20.60;68.25;97349.63;6222696;28;20711;-55
2023/06/30 08:04:33;;;;;;;2.97;2.57;;;;;;;20.65;66.91;97325.13;6221150;28;20248;-55
2023/06/30 08:07:36;;;;;;;7.23;3.40;;;;;;;20.88;64.61;97347.41;6220298;28;20232;-54
2023/06/30 08:10:51;;;;;;;3.20;2.73;;;;;;;21.04;66.28;97350.50;6221561;28;20237;-55
2023/06/30 08:13:53;;;;;;;4.63;3.30;;;;;;;21.17;62.63;97351.44;6222136;28;20231;-55
2023/06/30 08:16:55;;;;;;;3.37;2.77;;;;;;;21.24;65.51;97343.63;6222553;28;20242;-55
2023/06/30 08:20:02;;;;;;;3.27;2.80;;;;;;;21.28;67.72;97348.09;6220984;28;20326;-54
2023/06/30 08:23:05;;;;;;;4.73;3.00;;;;;;;21.31;64.59;97350.19;6224017;28;20233;-55
2023/06/30 08:26:07;;;;;;;5.23;2.67;;;;;;;21.40;65.88;97352.09;6220869;28;20235;-55
2023/06/30 08:29:09;;;;;;;3.77;3.10;;;;;;;21.60;59.07;97348.72;6220153;28;20743;-55
2023/06/30 08:32:11;;;;;;;5.40;3.50;;;;;;;21.78;58.28;97353.00;6218707;28;20239;-55
2023/06/30 08:35:13;;;;;;;3.50;2.37;;;;;;;21.80;63.81;97348.06;6224085;28;20914;-55
2023/06/30 08:38:15;;;;;;;5.33;2.90;;;;;;;21.79;66.13;97340.25;6222040;28;20278;-55
2023/06/30 08:41:18;;;;;;;5.60;3.50;;;;;;;21.94;59.42;97337.00;6221272;28;20236;-55
2023/06/30 08:44:23;;;;;;;6.03;3.13;;;;;;;22.10;60.38;97346.19;6220817;28;20228;-55
2023/06/30 08:47:29;;;;;;;5.43;2.97;;;;;;;22.13;63.38;97340.16;6221401;28;20264;-56
2023/06/30 08:50:34;;;;;;;4.53;3.53;;;;;;;22.18;63.60;97332.97;6222135;28;20231;-56
2023/06/30 08:53:37;;;;;;;8.97;4.20;;;;;;;22.29;57.01;97345.06;6223950;28;20240;-56
2023/06/30 08:56:42;;;;;;;9.33;4.03;;;;;;;22.37;57.14;97350.44;6220311;28;20243;-56
2023/06/30 08:59:44;;;;;;;4.67;3.93;;;;;;;22.51;57.92;97349.41;6219113;28;20309;-56
2023/06/30 09:02:48;;;;;;;7.83;4.33;;;;;;;22.66;57.14;97349.66;6220457;28;20725;-55
2023/06/30 09:05:54;;;;;;;5.55;4.13;;;;;;;22.75;58.60;97349.59;6215362;28;20303;-55
2023/06/30 09:09:02;;;;;;;6.03;4.10;;;;;;;22.78;58.77;97343.50;6223518;28;20241;-56
2023/06/30 09:12:05;;;;;;;5.53;4.15;;;;;;;22.82;58.02;97338.22;6219965;28;20264;-56
2023/06/30 09:15:09;;;;;;;4.78;3.85;;;;;;;22.85;58.81;97341.06;6217209;28;20602;-56
2023/06/30 09:18:13;;;;;;;5.75;3.60;;;;;;;22.88;58.56;97350.47;6215104;28;20220;-56
2023/06/30 09:21:15;;;;;;;8.40;4.97;;;;;;;22.73;55.46;97323.91;6219730;28;20223;-56
2023/06/30 09:24:18;;;;;;;6.45;5.00;;;;;;;22.84;54.27;97342.19;6217874;28;20212;-57
2023/06/30 09:27:20;;;;;;;4.47;4.00;;;;;;;22.89;56.03;97346.66;6225977;28;20209;-56
2023/06/30 09:30:32;;;;;;;8.60;4.85;;;;;;;23.00;54.42;97334.28;6220833;28;20334;-56
2023/06/30 09:33:35;;;;;;;5.50;4.82;;;;;;;23.07;52.72;97333.75;6219433;28;20239;-56
2023/06/30 09:36:46;;;;;;;3.78;3.40;;;;;;;22.97;57.17;97301.56;6215625;28;20235;-56
2023/06/30 09:39:51;;;;;;;4.25;3.17;;;;;;;23.18;57.88;97332.22;6221591;28;20707;-56
2023/06/30 09:42:54;;;;;;;6.45;4.82;;;;;;;23.39;53.41;97335.72;6251399;28;20327;-57
2023/06/30 09:46:00;;;;;;;5.78;3.90;;;;;;;23.26;52.96;97330.56;6216730;28;20370;-56
2023/06/30 09:49:04;;;;;;;5.63;4.00;;;;;;;23.29;53.90;97324.44;6223436;28;20228;-56
2023/06/30 09:52:06;;;;;;;4.47;3.88;;;;;;;23.36;51.77;97327.44;6220268;28;20775;-56
2023/06/30 09:55:09;;;;;;;7.00;4.80;;;;;;;23.29;51.79;97322.53;6216419;28;20611;-56
2023/06/30 09:58:11;;;;;;;4.72;4.10;;;;;;;23.22;51.78;97325.00;6218744;28;20777;-56
2023/06/30 10:01:21;;;;;;;4.38;3.72;;;;;;;23.36;52.02;97328.25;6217773;28;20235;-56
2023/06/30 10:04:25;;;;;;;5.03;3.60;;;;;;;23.36;54.39;97325.53;6217073;28;20232;-56
2023/06/30 10:07:27;;;;;;;5.93;3.38;;;;;;;23.38;53.83;97325.19;6219709;28;20610;-57
2023/06/30 10:10:31;;;;;;;3.47;3.00;;;;;;;23.43;52.40;97312.16;6218332;28;20242;-57
2023/06/30 10:13:34;;;;;;;6.22;2.97;;;;;;;23.52;51.64;97317.53;6220031;28;20701;-56
2023/06/30 10:16:37;;;;;;;4.70;3.22;;;;;;;23.64;52.45;97316.78;6219127;28;20591;-57
2023/06/30 10:19:41;;;;;;;4.68;3.35;;;;;;;23.64;51.25;97316.78;6217508;28;20243;-57
2023/06/30 10:22:44;;;;;;;4.07;3.30;;;;;;;23.65;51.68;97316.47;6221256;28;20698;-57
2023/06/30 10:25:47;;;;;;;3.97;2.92;;;;;;;23.67;51.59;97313.41;6216400;28;20658;-57
2023/06/30 10:28:51;;;;;;;3.92;2.95;;;;;;;23.72;51.73;97321.34;6223328;28;20243;-57
2023/06/30 10:31:54;;;;;;;7.70;3.25;;;;;;;23.69;50.56;97294.81;6218685;28;20242;-56
2023/06/30 10:35:02;;;;;;;4.90;3.15;;;;;;;23.81;50.43;97310.38;6218720;28;20690;-57
2023/06/30 10:38:04;;;;;;;4.15;2.70;;;;;;;23.74;50.49;97270.13;6217597;28;20709;-57
2023/06/30 10:41:19;;;;;;;5.90;3.20;;;;;;;24.03;50.26;97295.56;6219346;28;20260;-57
2023/06/30 10:44:36;;;;;;;3.88;3.33;;;;;;;24.13;49.33;97297.84;6215149;28;20263;-59
2023/06/30 10:47:39;;;;;;;4.30;3.03;;;;;;;24.33;50.11;97296.91;6216954;28;20705;-57
2023/06/30 10:50:42;;;;;;;2.92;2.67;;;;;;;24.23;49.44;97280.25;6236448;28;20235;-61
2023/06/30 10:53:44;;;;;;;3.53;2.70;;;;;;;24.06;50.15;97264.97;6246050;28;20242;-60
2023/06/30 10:56:47;;;;;;;5.05;2.78;;;;;;;24.19;47.67;97285.59;6242286;28;20228;-57
2023/06/30 11:00:11;;;;;;;6.13;2.78;;;;;;;24.15;48.34;97276.53;6242273;28;20227;-57
2023/06/30 11:03:13;;;;;;;4.22;3.50;;;;;;;23.96;48.23;97265.41;6216590;28;20220;-59
2023/06/30 11:06:17;;;;;;;2.65;2.45;;;;;;;23.96;48.90;97246.34;6215240;28;20231;-57
2023/06/30 11:09:19;;;;;;;2.92;2.60;;;;;;;24.20;52.28;97274.38;6220984;28;20219;-60
2023/06/30 11:12:26;;;;;;;5.60;2.90;;;;;;;24.26;48.13;97266.75;6216143;28;20308;-62
2023/06/30 11:15:48;;;;;;;3.38;3.03;;;;;;;24.51;48.00;97262.13;6218425;28;20228;-63
2023/06/30 11:19:00;;;;;;;5.70;3.17;;;;;;;24.49;47.77;97255.44;6208565;28;20235;-58
2023/06/30 11:22:25;;;;;;;5.95;2.67;;;;;;;24.56;48.34;97248.25;6218176;28;20237;-58
2023/06/30 11:25:30;;;;;;;5.55;2.45;;;;;;;24.62;49.05;97255.06;6214993;28;20246;-57
2023/06/30 11:28:32;;;;;;;3.50;3.05;;;;;;;24.66;49.03;97239.63;6218590;28;20232;-58
2023/06/30 11:31:36;;;;;;;6.93;3.42;;;;;;;24.70;47.78;97234.28;6217236;28;20243;-57
2023/06/30 11:34:39;;;;;;;6.25;2.50;;;;;;;24.53;49.66;97186.34;6217633;28;20248;-57
2023/06/30 11:37:47;;;;;;;8.18;3.30;;;;;;;24.70;45.96;97221.44;6214456;28;20249;-57
2023/06/30 11:40:50;;;;;;;3.22;2.83;;;;;;;24.75;47.70;97209.50;6215388;28;20240;-57
2023/06/30 11:43:55;;;;;;;4.68;3.00;;;;;;;24.93;47.36;97202.66;6219611;28;20776;-58
2023/06/30 11:46:58;;;;;;;3.88;2.67;;;;;;;24.83;47.01;97175.09;6214993;28;20231;-57
2023/06/30 11:50:08;;;;;;;2.90;2.50;;;;;;;25.19;45.39;97212.31;6217309;28;20254;-57
2023/06/30 11:53:10;;;;;;;2.70;2.50;;;;;;;25.31;42.46;97209.50;6217754;28;20232;-58
2023/06/30 11:56:12;;;;;;;2.80;2.40;;;;;;;25.35;43.53;97213.13;6216626;28;20700;-57
2023/06/30 11:59:14;;;;;;;2.80;2.10;;;;;;;25.37;44.73;97205.41;6215831;28;20231;-58
2023/06/30 12:02:16;;;;;;;4.75;2.10;;;;;;;25.51;43.33;97209.63;6217555;28;20229;-58
2023/06/30 12:05:23;;;;;;;3.25;2.25;;;;;;;25.55;44.56;97205.06;6218296;28;20242;-58
2023/06/30 12:08:26;;;;;;;4.38;2.22;;;;;;;25.53;42.76;97197.25;6215839;28;20236;-58
2023/06/30 12:11:30;;;;;;;3.20;2.45;;;;;;;25.65;41.41;97208.06;6217049;28;20274;-58
2023/06/30 12:14:39;;;;;;;3.78;2.25;;;;;;;25.54;42.11;97178.94;6216588;28;20233;-58
2023/06/30 12:17:44;;;;;;;2.47;2.05;;;;;;;25.82;43.33;97203.44;6219623;28;20220;-58
2023/06/30 12:20:49;;;;;;;2.50;2.30;;;;;;;25.86;42.39;97193.38;6216230;28;20224;-58
2023/06/30 12:23:51;;;;;;;3.53;2.20;;;;;;;25.85;42.22;97175.44;6219253;28;20228;-58
2023/06/30 12:26:53;;;;;;;3.10;2.10;;;;;;;25.77;43.48;97158.09;6220942;28;20227;-58
2023/06/30 12:29:56;;;;;;;3.38;2.30;;;;;;;25.86;42.72;97168.81;6221597;28;20231;-58
2023/06/30 12:33:00;;;;;;;6.28;2.20;;;;;;;26.14;43.10;97180.41;6223382;28;20743;-58
2023/06/30 12:36:06;;;;;;;3.58;2.40;;;;;;;26.17;43.00;97160.59;6223586;28;20243;-58
2023/06/30 12:39:09;;;;;;;3.45;2.53;;;;;;;26.08;45.25;97126.44;6219652;28;20717;-58
2023/06/30 12:42:12;;;;;;;2.90;2.30;;;;;;;26.39;46.47;97161.03;6225465;28;20216;-58
2023/06/30 12:45:15;;;;;;;4.32;2.58;;;;;;;26.35;42.73;97158.22;6221179;28;20216;-58
2023/06/30 12:48:17;;;;;;;4.20;2.17;;;;;;;26.44;44.11;97160.78;6225569;28;20212;-58
2023/06/30 12:51:19;;;;;;;4.35;2.83;;;;;;;26.54;41.77;97146.56;6219908;28;20683;-58
2023/06/30 12:54:22;;;;;;;2.75;2.55;;;;;;;26.53;41.03;97144.19;6224118;28;20700;-58
2023/06/30 12:57:25;;;;;;;2.15;1.95;;;;;;;26.36;40.90;97142.66;6220861;28;20716;-58
2023/06/30 13:00:27;;;;;;;4.00;2.55;;;;;;;26.37;41.58;97131.34;6221975;28;20230;-58
2023/06/30 13:03:32;;;;;;;4.47;2.47;;;;;;;26.43;42.58;97127.22;6216467;28;20728;-58
2023/06/30 13:06:34;;;;;;;2.67;2.33;;;;;;;26.51;45.04;97132.84;6220457;28;20231;-58
2023/06/30 13:09:37;;;;;;;3.55;2.47;;;;;;;26.19;43.60;97092.75;6214261;28;20231;-58
2023/06/30 13:12:40;;;;;;;5.00;2.80;;;;;;;26.30;45.20;97119.47;6219948;28;20721;-58
2023/06/30 13:15:43;;;;;;;2.72;2.20;;;;;;;26.06;45.92;97121.34;6219272;28;20244;-58
2023/06/30 13:18:46;;;;;;;3.42;2.30;;;;;;;26.07;46.81;97117.47;6224465;28;20645;-58
2023/06/30 13:21:48;;;;;;;3.25;2.33;;;;;;;25.97;45.39;97091.50;6219540;28;20250;-58
2023/06/30 13:24:50;;;;;;;5.18;2.50;;;;;;;26.20;46.57;97099.00;6222558;28;20241;-58
2023/06/30 13:27:52;;;;;;;2.97;2.42;;;;;;;26.29;43.18;97093.31;6222382;28;20239;-58
2023/06/30 13:30:55;;;;;;;2.47;2.25;;;;;;;26.09;42.66;97076.13;6215195;28;20235;-58
2023/06/30 13:33:57;;;;;;;5.13;2.72;;;;;;;26.09;44.05;97076.13;6221406;28;20231;-58
2023/06/30 13:36:59;;;;;;;2.20;2.00;;;;;;;26.08;44.99;97069.91;6217153;28;20229;-58
2023/06/30 13:40:02;;;;;;;2.67;2.40;;;;;;;25.90;42.93;97044.16;6221665;28;20702;-58
2023/06/30 13:43:04;;;;;;;2.95;2.20;;;;;;;26.09;44.69;97074.19;6219089;28;20724;-58
2023/06/30 13:46:07;;;;;;;3.17;2.08;;;;;;;26.17;45.81;97073.22;6220640;28;20232;-58
2023/06/30 13:49:09;;;;;;;3.38;2.00;;;;;;;25.89;44.93;97018.81;6222664;28;20236;-57
2023/06/30 13:52:11;;;;;;;2.53;2.10;;;;;;;26.15;47.56;97067.31;6216518;28;20692;-58
2023/06/30 13:55:14;;;;;;;2.90;2.20;;;;;;;26.01;48.01;97058.03;6218757;28;20702;-57
2023/06/30 13:58:16;;;;;;;3.20;2.13;;;;;;;26.01;44.65;97049.84;6220729;28;20721;-58
2023/06/30 14:01:18;;;;;;;2.20;2.00;;;;;;;26.12;43.38;97048.13;6221217;28;20239;-58
2023/06/30 14:04:20;;;;;;;2.55;2.28;;;;;;;25.57;45.72;96966.28;6217784;28;20231;-57
2023/06/30 14:07:22;;;;;;;2.67;2.10;;;;;;;25.99;47.27;97048.25;6223682;28;20236;-58
2023/06/30 14:10:24;;;;;;;2.22;2.03;;;;;;;25.88;46.36;97036.34;6220196;28;20243;-57
2023/06/30 14:13:27;;;;;;;2.97;2.58;;;;;;;26.17;42.09;97035.00;6218219;28;20266;-57
2023/06/30 14:16:30;;;;;;;2.97;2.22;;;;;;;26.28;44.52;97032.47;6216896;28;20246;-57
2023/06/30 14:19:33;;;;;;;3.67;2.33;;;;;;;26.08;42.23;96995.41;6219791;28;20266;-57
2023/06/30 14:22:35;;;;;;;3.00;2.50;;;;;;;26.18;43.82;97005.75;6218382;28;20224;-57